createdAt,value
2018-07-04T00:04:02.606Z,82.50
2018-07-04T00:09:17.085Z,82.30
2018-07-04T00:14:31.607Z,82.10
2018-07-04T00:19:46.230Z,84.70
2018-07-04T00:25:00.888Z,85.30
2018-07-04T00:35:24.334Z,84.00
2018-07-04T00:40:39.086Z,83.70
2018-07-04T00:45:53.763Z,82.80
2018-07-04T00:51:08.469Z,82.30
2018-07-04T00:56:23.042Z,83.90
2018-07-04T01:01:37.735Z,87.90
2018-07-04T01:06:52.762Z,88.90
2018-07-04T01:12:07.349Z,88.10
2018-07-04T01:22:30.669Z,86.60
2018-07-04T01:27:45.332Z,88.30
2018-07-04T01:32:59.992Z,89.30
2018-07-04T01:38:14.594Z,90.10
2018-07-04T01:43:29.164Z,90.70
2018-07-04T01:48:43.803Z,91.10
2018-07-04T01:53:58.303Z,91.10
2018-07-04T01:59:13.085Z,91.20
2018-07-04T02:04:27.638Z,91.10
2018-07-04T02:09:42.161Z,90.70
2018-07-04T02:14:56.762Z,91.00
2018-07-04T02:20:11.556Z,91.30
2018-07-04T02:25:26.188Z,91.30
2018-07-04T02:35:49.375Z,91.90
2018-07-04T02:41:04.004Z,92.10
2018-07-04T02:46:52.555Z,91.90
2018-07-04T02:52:07.101Z,92.70
2018-07-04T02:57:21.698Z,93.00
2018-07-04T03:02:36.476Z,92.80
2018-07-04T03:12:59.527Z,93.00
2018-07-04T03:18:14.219Z,93.70
2018-07-04T03:23:28.920Z,95.70
2018-07-04T03:28:43.491Z,95.90
2018-07-04T03:33:58.126Z,95.90
2018-07-04T03:39:12.650Z,96.00
2018-07-04T03:44:27.403Z,95.70
2018-07-04T03:49:41.921Z,95.80
2018-07-04T03:54:56.624Z,96.50
2018-07-04T04:00:11.272Z,96.70
2018-07-04T04:05:25.972Z,95.80
2018-07-04T04:10:40.510Z,95.00
2018-07-04T04:15:55.219Z,95.20
2018-07-04T04:21:09.947Z,95.00
2018-07-04T04:26:24.587Z,93.90
2018-07-04T04:31:39.244Z,94.10
2018-07-04T04:36:53.892Z,93.00
2018-07-04T04:42:08.626Z,94.40
2018-07-04T04:47:23.538Z,94.90
2018-07-04T04:52:38.307Z,95.20
2018-07-04T04:57:53.059Z,95.70
2018-07-04T05:03:07.844Z,96.20
2018-07-04T05:08:22.474Z,97.00
2018-07-04T05:13:37.021Z,98.30
2018-07-04T05:18:51.662Z,97.60
2018-07-04T05:24:06.212Z,95.30
2018-07-04T05:29:20.941Z,95.30
2018-07-04T05:34:35.590Z,95.10
2018-07-04T05:44:58.950Z,94.80
2018-07-04T05:50:13.682Z,92.60
2018-07-04T05:55:28.266Z,88.80
2018-07-04T06:00:42.947Z,84.50
2018-07-04T06:05:57.496Z,86.70
2018-07-04T06:11:12.212Z,87.50
2018-07-04T06:16:26.928Z,87.30
2018-07-04T06:21:41.594Z,84.10
2018-07-04T06:26:56.217Z,84.10
2018-07-04T06:32:10.886Z,80.90
2018-07-04T06:37:25.506Z,82.30
2018-07-04T06:42:27.742Z,79.30
2018-07-04T06:47:30.055Z,73.90
2018-07-04T07:02:37.267Z,69.90
2018-07-04T07:07:51.950Z,69.70
2018-07-04T07:13:06.463Z,72.70
2018-07-04T07:18:21.078Z,72.50
2018-07-04T07:23:35.854Z,69.00
2018-07-04T07:28:50.544Z,66.30
2018-07-04T07:34:06.020Z,67.80
2018-07-04T07:39:20.989Z,69.60
2018-07-04T07:49:44.214Z,68.10
2018-07-04T07:54:58.743Z,70.60
2018-07-04T08:00:13.400Z,76.30
2018-07-04T08:05:28.135Z,79.50
2018-07-04T08:15:51.428Z,78.30
2018-07-04T08:21:06.127Z,77.10
2018-07-04T08:31:29.332Z,71.80
2018-07-04T08:36:43.955Z,74.30
2018-07-04T08:41:58.655Z,68.80
2018-07-04T08:47:13.264Z,70.50
2018-07-04T08:52:27.804Z,73.80
2018-07-04T08:57:42.540Z,71.80
2018-07-04T09:02:57.307Z,70.20
2018-07-04T09:08:11.890Z,68.80
2018-07-04T09:13:26.628Z,69.70
2018-07-04T09:18:41.188Z,69.80
2018-07-04T09:23:55.852Z,71.00
2018-07-04T09:29:10.596Z,71.00
2018-07-04T09:34:25.292Z,70.20
2018-07-04T09:39:40.055Z,69.90
2018-07-04T09:44:54.641Z,67.70
2018-07-04T09:50:10.121Z,70.60
2018-07-04T10:05:42.029Z,67.60
2018-07-04T10:10:56.513Z,66.20
2018-07-04T10:16:11.023Z,66.00
2018-07-04T10:21:25.856Z,65.40
2018-07-04T10:26:40.392Z,64.80
2018-07-04T10:31:55.097Z,62.70
2018-07-04T10:37:09.598Z,64.10
2018-07-04T10:42:24.388Z,65.20
2018-07-04T10:47:39.101Z,60.80
2018-07-04T10:52:53.749Z,62.90
2018-07-04T10:58:08.404Z,61.20
2018-07-04T11:03:23.200Z,61.70
2018-07-04T11:08:37.736Z,58.20
2018-07-04T11:13:52.299Z,58.00
2018-07-04T11:19:06.882Z,58.10
2018-07-04T11:24:21.490Z,54.70
2018-07-04T11:29:35.984Z,49.20
2018-07-04T11:34:50.665Z,52.80
2018-07-04T11:40:05.235Z,45.80
2018-07-04T11:45:20.020Z,44.70
2018-07-04T11:50:22.269Z,48.10
2018-07-04T11:55:24.522Z,48.40
2018-07-04T12:00:26.759Z,47.20
2018-07-04T12:05:41.291Z,42.90
2018-07-04T12:10:43.540Z,41.00
2018-07-04T12:25:51.428Z,40.40
2018-07-04T12:30:53.729Z,42.60
2018-07-04T12:56:18.251Z,40.10
2018-07-04T13:01:32.831Z,38.50
2018-07-04T13:06:47.927Z,35.50
2018-07-04T13:12:02.579Z,33.90
2018-07-04T13:17:17.371Z,33.60
2018-07-04T13:22:32.146Z,35.80
2018-07-04T13:27:46.864Z,33.90
2018-07-04T13:33:01.488Z,32.90
2018-07-04T13:38:16.011Z,37.00
2018-07-04T13:43:31.060Z,34.50
2018-07-04T13:48:45.874Z,33.50
2018-07-04T13:54:00.485Z,37.90
2018-07-04T13:59:15.245Z,37.60
2018-07-04T14:04:29.986Z,39.10
2018-07-04T14:09:44.867Z,37.40
2018-07-04T14:14:59.670Z,40.10
2018-07-04T14:20:14.586Z,38.80
2018-07-04T14:25:29.675Z,37.60
2018-07-04T14:30:44.310Z,35.70
2018-07-04T14:35:58.967Z,40.30
2018-07-04T14:41:13.727Z,44.70
2018-07-04T14:46:28.459Z,46.00
2018-07-04T14:51:43.063Z,41.70
2018-07-04T14:56:58.240Z,42.90
2018-07-04T15:02:13.090Z,43.50
2018-07-04T15:07:28.000Z,46.10
2018-07-04T15:12:42.804Z,47.80
2018-07-04T15:17:57.584Z,51.20
2018-07-04T15:23:12.264Z,55.00
2018-07-04T15:28:27.419Z,57.50
2018-07-04T15:33:41.954Z,54.70
2018-07-04T15:38:56.718Z,55.50
2018-07-04T15:44:11.542Z,56.80
2018-07-04T15:49:26.327Z,55.00
2018-07-04T15:59:50.163Z,54.50
2018-07-04T16:05:05.040Z,53.80
2018-07-04T16:15:28.116Z,57.40
2018-07-04T16:20:42.868Z,58.90
2018-07-04T16:25:57.572Z,59.40
2018-07-04T16:31:12.164Z,59.60
2018-07-04T16:36:26.750Z,60.00
2018-07-04T16:41:41.570Z,62.70
2018-07-04T16:46:56.231Z,63.30
2018-07-04T16:52:10.887Z,62.80
2018-07-04T17:02:34.836Z,64.10
2018-07-04T17:12:58.231Z,62.50
2018-07-04T17:18:12.862Z,59.40
2018-07-04T17:23:28.720Z,59.90
2018-07-04T17:28:44.322Z,60.40
2018-07-04T17:33:59.968Z,60.10
2018-07-04T17:39:15.572Z,61.70
2018-07-04T17:44:31.242Z,62.30
2018-07-04T17:54:56.859Z,59.10
2018-07-04T18:00:13.200Z,58.30
2018-07-04T18:05:28.813Z,57.80
2018-07-04T18:10:44.403Z,57.50
2018-07-04T18:16:00.051Z,57.60
2018-07-04T18:21:20.878Z,56.20
2018-07-04T18:26:35.527Z,56.00
2018-07-04T18:31:50.277Z,56.40
2018-07-04T18:37:04.943Z,57.60
2018-07-04T18:42:19.656Z,58.90
2018-07-04T18:47:34.195Z,58.50
2018-07-04T18:52:48.783Z,60.40
2018-07-04T18:58:03.581Z,61.00
2018-07-04T19:03:18.595Z,62.00
2018-07-04T19:08:33.313Z,63.50
2018-07-04T19:13:47.988Z,65.80
2018-07-04T19:19:02.742Z,66.50
2018-07-04T19:24:17.502Z,67.70
2018-07-04T19:29:33.365Z,68.60
2018-07-04T19:39:56.809Z,78.60
2018-07-04T19:45:11.486Z,81.70
2018-07-04T19:50:26.077Z,83.10
2018-07-04T19:55:40.815Z,84.10
2018-07-04T20:00:55.324Z,84.90
2018-07-04T20:06:10.647Z,87.60
2018-07-04T20:11:25.482Z,89.60
2018-07-04T20:16:40.211Z,90.70
2018-07-04T20:21:54.937Z,90.80
2018-07-04T20:27:09.476Z,90.80
2018-07-04T20:32:24.088Z,91.30
2018-07-04T20:42:47.457Z,93.80
2018-07-04T20:48:02.241Z,94.30
2018-07-04T20:53:16.783Z,94.30
2018-07-04T20:58:31.650Z,92.90
2018-07-04T21:03:46.429Z,93.10
2018-07-04T21:09:01.195Z,92.30
2018-07-04T21:14:15.732Z,92.70
2018-07-04T21:19:30.566Z,94.20
2018-07-04T21:24:45.296Z,95.20
2018-07-04T21:29:59.879Z,96.30
2018-07-04T21:35:14.470Z,96.10
2018-07-04T21:40:29.123Z,97.20
2018-07-04T21:45:43.719Z,97.30
2018-07-04T21:50:58.504Z,98.60
2018-07-04T21:56:13.280Z,98.40
2018-07-04T22:01:28.142Z,98.60
2018-07-04T22:06:42.640Z,98.70
2018-07-04T22:11:57.351Z,98.60
2018-07-04T22:17:11.998Z,98.90
2018-07-04T22:22:26.647Z,98.60
2018-07-04T22:27:41.359Z,99.20
2018-07-04T22:32:58.022Z,99.20
2018-07-04T22:38:12.815Z,99.10
2018-07-04T22:43:27.490Z,99.30
2018-07-04T22:48:42.191Z,99.20
2018-07-04T22:53:57.282Z,99.50
2018-07-04T22:59:12.317Z,99.60
2018-07-04T23:04:27.164Z,99.90
2018-07-04T23:09:42.105Z,99.90
2018-07-04T23:14:56.761Z,99.90
2018-07-04T23:20:11.536Z,99.90
2018-07-04T23:25:26.511Z,99.90
2018-07-04T23:30:41.392Z,99.90
2018-07-04T23:35:56.188Z,99.90
2018-07-04T23:41:10.845Z,99.90
2018-07-04T23:46:25.612Z,99.90
2018-07-04T23:51:40.397Z,99.80
2018-07-04T23:56:55.257Z,98.00
